sensor_id;sensor_type;location;lat;lon;timestamp;pressure;altitude;pressure_sealevel;temperature
79756;BMP280;69239;50.678;12.280;2024-03-02T00:01:29;96512.66;;;7.51
79756;BMP280;69239;50.678;12.280;2024-03-02T00:03:55;96526.50;;;7.60
79756;BMP280;69239;50.678;12.280;2024-03-02T00:06:20;96518.84;;;7.55
79756;BMP280;69239;50.678;12.280;2024-03-02T00:08:46;96526.06;;;7.58
79756;BMP280;69239;50.678;12.280;2024-03-02T00:11:11;96508.97;;;7.52
79756;BMP280;69239;50.678;12.280;2024-03-02T00:13:39;96516.22;;;7.55
79756;BMP280;69239;50.678;12.280;2024-03-02T00:16:04;96513.13;;;7.53
79756;BMP280;69239;50.678;12.280;2024-03-02T00:18:32;96522.56;;;7.54
79756;BMP280;69239;50.678;12.280;2024-03-02T00:20:59;96500.50;;;7.46
79756;BMP280;69239;50.678;12.280;2024-03-02T00:23:31;96513.91;;;7.45
79756;BMP280;69239;50.678;12.280;2024-03-02T00:25:57;96511.47;;;7.40
79756;BMP280;69239;50.678;12.280;2024-03-02T00:28:27;96508.38;;;7.38
79756;BMP280;69239;50.678;12.280;2024-03-02T00:31:07;96504.38;;;7.32
79756;BMP280;69239;50.678;12.280;2024-03-02T00:33:43;96504.06;;;7.25
79756;BMP280;69239;50.678;12.280;2024-03-02T00:36:10;96506.97;;;7.23
79756;BMP280;69239;50.678;12.280;2024-03-02T00:38:44;96498.22;;;7.10
79756;BMP280;69239;50.678;12.280;2024-03-02T00:41:16;96505.00;;;7.11
79756;BMP280;69239;50.678;12.280;2024-03-02T00:43:47;96493.44;;;7.04
79756;BMP280;69239;50.678;12.280;2024-03-02T00:46:15;96491.00;;;6.99
79756;BMP280;69239;50.678;12.280;2024-03-02T00:51:20;96497.59;;;6.96
79756;BMP280;69239;50.678;12.280;2024-03-02T00:53:45;96506.06;;;6.93
79756;BMP280;69239;50.678;12.280;2024-03-02T00:56:11;96496.97;;;6.82
79756;BMP280;69239;50.678;12.280;2024-03-02T00:58:37;96497.13;;;6.77
79756;BMP280;69239;50.678;12.280;2024-03-02T01:01:02;96506.53;;;6.78
79756;BMP280;69239;50.678;12.280;2024-03-02T01:03:27;96512.34;;;6.75
79756;BMP280;69239;50.678;12.280;2024-03-02T01:05:53;96503.09;;;6.69
79756;BMP280;69239;50.678;12.280;2024-03-02T01:08:18;96512.97;;;6.72
79756;BMP280;69239;50.678;12.280;2024-03-02T01:10:44;96524.94;;;6.73
79756;BMP280;69239;50.678;12.280;2024-03-02T01:13:10;96508.00;;;6.61
79756;BMP280;69239;50.678;12.280;2024-03-02T01:15:35;96515.13;;;6.70
79756;BMP280;69239;50.678;12.280;2024-03-02T01:18:00;96517.25;;;6.68
79756;BMP280;69239;50.678;12.280;2024-03-02T01:20:25;96524.81;;;6.69
79756;BMP280;69239;50.678;12.280;2024-03-02T01:22:51;96516.78;;;6.66
79756;BMP280;69239;50.678;12.280;2024-03-02T01:25:17;96515.41;;;6.68
79756;BMP280;69239;50.678;12.280;2024-03-02T01:27:42;96507.56;;;6.68
79756;BMP280;69239;50.678;12.280;2024-03-02T01:30:08;96501.28;;;6.78
79756;BMP280;69239;50.678;12.280;2024-03-02T01:32:33;96505.91;;;6.81
79756;BMP280;69239;50.678;12.280;2024-03-02T01:34:58;96515.78;;;6.84
79756;BMP280;69239;50.678;12.280;2024-03-02T01:37:24;96507.63;;;6.85
79756;BMP280;69239;50.678;12.280;2024-03-02T01:39:49;96516.66;;;6.79
79756;BMP280;69239;50.678;12.280;2024-03-02T01:42:14;96499.56;;;6.73
79756;BMP280;69239;50.678;12.280;2024-03-02T01:44:40;96514.81;;;6.80
79756;BMP280;69239;50.678;12.280;2024-03-02T01:47:05;96515.91;;;6.79
79756;BMP280;69239;50.678;12.280;2024-03-02T01:49:30;96512.53;;;6.78
79756;BMP280;69239;50.678;12.280;2024-03-02T01:51:56;96506.53;;;6.78
79756;BMP280;69239;50.678;12.280;2024-03-02T01:54:21;96510.53;;;6.84
79756;BMP280;69239;50.678;12.280;2024-03-02T01:56:46;96513.59;;;6.86
79756;BMP280;69239;50.678;12.280;2024-03-02T01:59:12;96505.59;;;6.82
79756;BMP280;69239;50.678;12.280;2024-03-02T02:01:38;96507.63;;;6.85
79756;BMP280;69239;50.678;12.280;2024-03-02T02:04:04;96507.28;;;6.87
79756;BMP280;69239;50.678;12.280;2024-03-02T02:06:31;96501.75;;;6.88
79756;BMP280;69239;50.678;12.280;2024-03-02T02:08:56;96497.28;;;6.89
79756;BMP280;69239;50.678;12.280;2024-03-02T02:11:22;96504.22;;;6.94
79756;BMP280;69239;50.678;12.280;2024-03-02T02:13:47;96498.81;;;6.90
79756;BMP280;69239;50.678;12.280;2024-03-02T02:16:12;96498.22;;;6.93
79756;BMP280;69239;50.678;12.280;2024-03-02T02:18:38;96514.53;;;6.99
79756;BMP280;69239;50.678;12.280;2024-03-02T02:21:03;96503.75;;;7.00
79756;BMP280;69239;50.678;12.280;2024-03-02T02:23:28;96500.06;;;7.01
79756;BMP280;69239;50.678;12.280;2024-03-02T02:25:53;96500.25;;;7.05
79756;BMP280;69239;50.678;12.280;2024-03-02T02:28:19;96493.00;;;7.02
79756;BMP280;69239;50.678;12.280;2024-03-02T02:30:45;96497.31;;;7.06
79756;BMP280;69239;50.678;12.280;2024-03-02T02:33:10;96501.00;;;7.05
79756;BMP280;69239;50.678;12.280;2024-03-02T02:35:35;96495.47;;;7.07
79756;BMP280;69239;50.678;12.280;2024-03-02T02:38:01;96492.41;;;7.05
79756;BMP280;69239;50.678;12.280;2024-03-02T02:40:28;96501.94;;;7.09
79756;BMP280;69239;50.678;12.280;2024-03-02T02:42:56;96498.84;;;7.07
79756;BMP280;69239;50.678;12.280;2024-03-02T02:45:22;96500.69;;;7.07
79756;BMP280;69239;50.678;12.280;2024-03-02T02:47:47;96496.56;;;7.06
79756;BMP280;69239;50.678;12.280;2024-03-02T02:50:14;96495.78;;;7.05
79756;BMP280;69239;50.678;12.280;2024-03-02T02:52:41;96493.63;;;7.07
79756;BMP280;69239;50.678;12.280;2024-03-02T02:55:08;96496.69;;;7.09
79756;BMP280;69239;50.678;12.280;2024-03-02T02:57:34;96497.47;;;7.10
79756;BMP280;69239;50.678;12.280;2024-03-02T03:00:02;96494.41;;;7.08
79756;BMP280;69239;50.678;12.280;2024-03-02T03:02:30;96494.53;;;7.11
79756;BMP280;69239;50.678;12.280;2024-03-02T03:04:56;96486.69;;;7.11
79756;BMP280;69239;50.678;12.280;2024-03-02T03:07:22;96496.84;;;7.13
79756;BMP280;69239;50.678;12.280;2024-03-02T03:09:48;96498.53;;;7.17
79756;BMP280;69239;50.678;12.280;2024-03-02T03:12:13;96498.25;;;7.19
79756;BMP280;69239;50.678;12.280;2024-03-02T03:14:40;96500.09;;;7.18
79756;BMP280;69239;50.678;12.280;2024-03-02T03:17:06;96497.16;;;7.20
79756;BMP280;69239;50.678;12.280;2024-03-02T03:19:33;96507.63;;;7.20
79756;BMP280;69239;50.678;12.280;2024-03-02T03:21:58;96488.38;;;7.07
79756;BMP280;69239;50.678;12.280;2024-03-02T03:24:23;96514.06;;;7.22
79756;BMP280;69239;50.678;12.280;2024-03-02T03:26:50;96515.59;;;7.23
79756;BMP280;69239;50.678;12.280;2024-03-02T03:29:15;96507.94;;;7.18
79756;BMP280;69239;50.678;12.280;2024-03-02T03:31:40;96514.72;;;7.19
79756;BMP280;69239;50.678;12.280;2024-03-02T03:34:05;96512.56;;;7.21
79756;BMP280;69239;50.678;12.280;2024-03-02T03:36:31;96523.94;;;7.26
79756;BMP280;69239;50.678;12.280;2024-03-02T03:38:56;96525.00;;;7.25
79756;BMP280;69239;50.678;12.280;2024-03-02T03:41:23;96524.22;;;7.24
79756;BMP280;69239;50.678;12.280;2024-03-02T03:43:48;96519.31;;;7.22
79756;BMP280;69239;50.678;12.280;2024-03-02T03:46:13;96519.31;;;7.22
79756;BMP280;69239;50.678;12.280;2024-03-02T03:48:38;96511.34;;;7.19
79756;BMP280;69239;50.678;12.280;2024-03-02T03:51:04;96520.41;;;7.21
79756;BMP280;69239;50.678;12.280;2024-03-02T03:53:29;96520.72;;;7.20
79756;BMP280;69239;50.678;12.280;2024-03-02T03:55:54;96524.88;;;7.21
79756;BMP280;69239;50.678;12.280;2024-03-02T03:58:19;96505.00;;;7.11
79756;BMP280;69239;50.678;12.280;2024-03-02T04:00:45;96519.19;;;7.19
79756;BMP280;69239;50.678;12.280;2024-03-02T04:03:11;96513.78;;;7.15
79756;BMP280;69239;50.678;12.280;2024-03-02T04:05:36;96520.84;;;7.23
79756;BMP280;69239;50.678;12.280;2024-03-02T04:08:02;96523.47;;;7.23
79756;BMP280;69239;50.678;12.280;2024-03-02T04:10:27;96537.03;;;7.26
79756;BMP280;69239;50.678;12.280;2024-03-02T04:12:52;96526.41;;;7.22
79756;BMP280;69239;50.678;12.280;2024-03-02T04:15:17;96524.69;;;7.17
79756;BMP280;69239;50.678;12.280;2024-03-02T04:17:43;96533.16;;;7.23
79756;BMP280;69239;50.678;12.280;2024-03-02T04:20:09;96533.03;;;7.19
79756;BMP280;69239;50.678;12.280;2024-03-02T04:22:34;96535.66;;;7.19
79756;BMP280;69239;50.678;12.280;2024-03-02T04:25:01;96544.09;;;7.25
79756;BMP280;69239;50.678;12.280;2024-03-02T04:27:26;96535.16;;;7.17
79756;BMP280;69239;50.678;12.280;2024-03-02T04:29:51;96542.84;;;7.22
79756;BMP280;69239;50.678;12.280;2024-03-02T04:32:17;96528.88;;;7.18
79756;BMP280;69239;50.678;12.280;2024-03-02T04:34:42;96541.97;;;7.18
79756;BMP280;69239;50.678;12.280;2024-03-02T04:37:08;96534.72;;;7.15
79756;BMP280;69239;50.678;12.280;2024-03-02T04:39:35;96540.41;;;7.17
79756;BMP280;69239;50.678;12.280;2024-03-02T04:42:00;96536.75;;;7.18
79756;BMP280;69239;50.678;12.280;2024-03-02T04:44:26;96534.25;;;7.13
79756;BMP280;69239;50.678;12.280;2024-03-02T04:46:51;96534.25;;;7.13
79756;BMP280;69239;50.678;12.280;2024-03-02T04:49:16;96539.63;;;7.17
79756;BMP280;69239;50.678;12.280;2024-03-02T04:51:41;96540.13;;;7.19
79756;BMP280;69239;50.678;12.280;2024-03-02T04:54:08;96533.16;;;7.14
79756;BMP280;69239;50.678;12.280;2024-03-02T04:56:33;96543.50;;;7.19
79756;BMP280;69239;50.678;12.280;2024-03-02T04:59:09;96543.31;;;7.16
79756;BMP280;69239;50.678;12.280;2024-03-02T05:01:34;96545.63;;;7.17
79756;BMP280;69239;50.678;12.280;2024-03-02T05:03:59;96548.41;;;7.12
79756;BMP280;69239;50.678;12.280;2024-03-02T05:06:25;96550.88;;;7.17
79756;BMP280;69239;50.678;12.280;2024-03-02T05:08:50;96550.88;;;7.17
79756;BMP280;69239;50.678;12.280;2024-03-02T05:11:15;96562.09;;;7.18
79756;BMP280;69239;50.678;12.280;2024-03-02T05:13:59;96559.22;;;7.19
79756;BMP280;69239;50.678;12.280;2024-03-02T05:16:25;96553.97;;;7.19
79756;BMP280;69239;50.678;12.280;2024-03-02T05:18:50;96560.75;;;7.20
79756;BMP280;69239;50.678;12.280;2024-03-02T05:21:15;96559.22;;;7.19
79756;BMP280;69239;50.678;12.280;2024-03-02T05:23:41;96559.81;;;7.16
79756;BMP280;69239;50.678;12.280;2024-03-02T05:26:06;96563.97;;;7.17
79756;BMP280;69239;50.678;12.280;2024-03-02T05:28:31;96573.53;;;7.22
79756;BMP280;69239;50.678;12.280;2024-03-02T05:30:56;96574.91;;;7.19
79756;BMP280;69239;50.678;12.280;2024-03-02T05:33:22;96577.22;;;7.21
79756;BMP280;69239;50.678;12.280;2024-03-02T05:35:48;96573.38;;;7.18
79756;BMP280;69239;50.678;12.280;2024-03-02T05:38:15;96573.53;;;7.22
79756;BMP280;69239;50.678;12.280;2024-03-02T05:40:40;96575.38;;;7.21
79756;BMP280;69239;50.678;12.280;2024-03-02T05:43:05;96581.53;;;7.26
79756;BMP280;69239;50.678;12.280;2024-03-02T05:45:30;96584.59;;;7.28
79756;BMP280;69239;50.678;12.280;2024-03-02T05:47:56;96585.69;;;7.27
79756;BMP280;69239;50.678;12.280;2024-03-02T05:50:21;96568.28;;;7.22
79756;BMP280;69239;50.678;12.280;2024-03-02T05:52:46;96584.75;;;7.31
79756;BMP280;69239;50.678;12.280;2024-03-02T05:55:12;96590.13;;;7.35
79756;BMP280;69239;50.678;12.280;2024-03-02T05:57:37;96592.75;;;7.35
79756;BMP280;69239;50.678;12.280;2024-03-02T06:00:07;96597.69;;;7.36
79756;BMP280;69239;50.678;12.280;2024-03-02T06:02:33;96602.59;;;7.38
79756;BMP280;69239;50.678;12.280;2024-03-02T06:05:00;96595.25;;;7.40
79756;BMP280;69239;50.678;12.280;2024-03-02T06:07:25;96587.09;;;7.33
79756;BMP280;69239;50.678;12.280;2024-03-02T06:09:50;96600.31;;;7.45
79756;BMP280;69239;50.678;12.280;2024-03-02T06:12:17;96600.31;;;7.45
79756;BMP280;69239;50.678;12.280;2024-03-02T06:14:43;96607.56;;;7.48
79756;BMP280;69239;50.678;12.280;2024-03-02T06:17:08;96599.69;;;7.48
79756;BMP280;69239;50.678;12.280;2024-03-02T06:19:33;96598.63;;;7.49
79756;BMP280;69239;50.678;12.280;2024-03-02T06:21:58;96604.31;;;7.51
79756;BMP280;69239;50.678;12.280;2024-03-02T06:24:24;96604.50;;;7.55
79756;BMP280;69239;50.678;12.280;2024-03-02T06:26:51;96598.00;;;7.52
79756;BMP280;69239;50.678;12.280;2024-03-02T06:29:17;96591.69;;;7.53
79756;BMP280;69239;50.678;12.280;2024-03-02T06:31:42;96597.69;;;7.62
79756;BMP280;69239;50.678;12.280;2024-03-02T06:34:07;96599.84;;;7.60
79756;BMP280;69239;50.678;12.280;2024-03-02T06:36:33;96600.78;;;7.64
79756;BMP280;69239;50.678;12.280;2024-03-02T06:38:58;96596.63;;;7.63
79756;BMP280;69239;50.678;12.280;2024-03-02T06:41:25;96604.00;;;7.70
79756;BMP280;69239;50.678;12.280;2024-03-02T06:43:51;96593.88;;;7.68
79756;BMP280;69239;50.678;12.280;2024-03-02T06:46:24;96601.53;;;7.73
79756;BMP280;69239;50.678;12.280;2024-03-02T06:48:49;96603.56;;;7.76
79756;BMP280;69239;50.678;12.280;2024-03-02T06:51:14;96590.13;;;7.78
79756;BMP280;69239;50.678;12.280;2024-03-02T06:53:42;96600.31;;;7.79
79756;BMP280;69239;50.678;12.280;2024-03-02T06:56:07;96608.00;;;7.85
79756;BMP280;69239;50.678;12.280;2024-03-02T06:58:34;96601.38;;;7.87
79756;BMP280;69239;50.678;12.280;2024-03-02T07:00:59;96600.44;;;7.92
79756;BMP280;69239;50.678;12.280;2024-03-02T07:03:25;96597.97;;;7.87
79756;BMP280;69239;50.678;12.280;2024-03-02T07:05:51;96594.09;;;7.93
79756;BMP280;69239;50.678;12.280;2024-03-02T07:08:16;96589.19;;;7.91
79756;BMP280;69239;50.678;12.280;2024-03-02T07:10:41;96587.00;;;7.93
79756;BMP280;69239;50.678;12.280;2024-03-02T07:13:09;96590.41;;;7.94
79756;BMP280;69239;50.678;12.280;2024-03-02T07:15:34;96600.41;;;8.09
79756;BMP280;69239;50.678;12.280;2024-03-02T07:18:35;96595.31;;;8.12
79756;BMP280;69239;50.678;12.280;2024-03-02T07:21:06;96595.91;;;8.18
79756;BMP280;69239;50.678;12.280;2024-03-02T07:23:31;96596.69;;;8.19
79756;BMP280;69239;50.678;12.280;2024-03-02T07:25:57;96592.97;;;8.20
79756;BMP280;69239;50.678;12.280;2024-03-02T07:28:23;96592.47;;;8.26
79756;BMP280;69239;50.678;12.280;2024-03-02T07:30:58;96590.78;;;8.30
79756;BMP280;69239;50.678;12.280;2024-03-02T07:33:24;96602.16;;;8.34
79756;BMP280;69239;50.678;12.280;2024-03-02T07:35:49;96591.03;;;8.37
79756;BMP280;69239;50.678;12.280;2024-03-02T07:38:14;96593.50;;;8.42
79756;BMP280;69239;50.678;12.280;2024-03-02T07:40:40;96583.97;;;8.38
79756;BMP280;69239;50.678;12.280;2024-03-02T07:43:05;96598.84;;;8.55
79756;BMP280;69239;50.678;12.280;2024-03-02T07:45:31;96597.75;;;8.56
79756;BMP280;69239;50.678;12.280;2024-03-02T07:47:56;96597.28;;;8.62
79756;BMP280;69239;50.678;12.280;2024-03-02T07:50:21;96601.25;;;8.68
79756;BMP280;69239;50.678;12.280;2024-03-02T07:52:46;96610.63;;;8.78
79756;BMP280;69239;50.678;12.280;2024-03-02T07:55:12;96605.84;;;8.80
79756;BMP280;69239;50.678;12.280;2024-03-02T07:57:37;96616.13;;;8.85
79756;BMP280;69239;50.678;12.280;2024-03-02T08:00:02;96619.50;;;8.94
79756;BMP280;69239;50.678;12.280;2024-03-02T08:02:28;96614.38;;;8.98
79756;BMP280;69239;50.678;12.280;2024-03-02T08:04:53;96619.09;;;9.04
79756;BMP280;69239;50.678;12.280;2024-03-02T08:07:19;96609.06;;;9.06
79756;BMP280;69239;50.678;12.280;2024-03-02T08:09:44;96603.19;;;9.10
79756;BMP280;69239;50.678;12.280;2024-03-02T08:12:11;96609.31;;;9.14
79756;BMP280;69239;50.678;12.280;2024-03-02T08:14:37;96616.81;;;9.24
79756;BMP280;69239;50.678;12.280;2024-03-02T08:17:04;96618.50;;;9.28
79756;BMP280;69239;50.678;12.280;2024-03-02T08:19:34;96611.69;;;9.27
79756;BMP280;69239;50.678;12.280;2024-03-02T08:22:00;96609.84;;;9.28
79756;BMP280;69239;50.678;12.280;2024-03-02T08:24:25;96623.81;;;9.41
79756;BMP280;69239;50.678;12.280;2024-03-02T08:26:51;96625.81;;;9.44
79756;BMP280;69239;50.678;12.280;2024-03-02T08:29:16;96621.63;;;9.43
79756;BMP280;69239;50.678;12.280;2024-03-02T08:31:41;96623.53;;;9.54
79756;BMP280;69239;50.678;12.280;2024-03-02T08:34:06;96617.97;;;9.56
79756;BMP280;69239;50.678;12.280;2024-03-02T08:36:31;96624.22;;;9.63
79756;BMP280;69239;50.678;12.280;2024-03-02T08:38:58;96620.66;;;9.68
79756;BMP280;69239;50.678;12.280;2024-03-02T08:41:24;96624.47;;;9.71
79756;BMP280;69239;50.678;12.280;2024-03-02T08:43:49;96624.28;;;9.76
79756;BMP280;69239;50.678;12.280;2024-03-02T08:46:14;96634.72;;;9.84
79756;BMP280;69239;50.678;12.280;2024-03-02T08:48:39;96634.84;;;9.88
79756;BMP280;69239;50.678;12.280;2024-03-02T08:51:05;96639.91;;;9.93
79756;BMP280;69239;50.678;12.280;2024-03-02T08:53:33;96641.22;;;9.99
79756;BMP280;69239;50.678;12.280;2024-03-02T08:55:58;96646.72;;;10.06
79756;BMP280;69239;50.678;12.280;2024-03-02T08:58:23;96650.56;;;10.09
79756;BMP280;69239;50.678;12.280;2024-03-02T09:00:50;96649.03;;;10.08
79756;BMP280;69239;50.678;12.280;2024-03-02T09:03:16;96649.16;;;10.11
79756;BMP280;69239;50.678;12.280;2024-03-02T09:05:43;96662.97;;;10.20
79756;BMP280;69239;50.678;12.280;2024-03-02T09:08:08;96661.66;;;10.26
79756;BMP280;69239;50.678;12.280;2024-03-02T09:10:35;96662.56;;;10.30
79756;BMP280;69239;50.678;12.280;2024-03-02T09:13:01;96660.69;;;10.31
79756;BMP280;69239;50.678;12.280;2024-03-02T09:15:26;96661.34;;;10.40
79756;BMP280;69239;50.678;12.280;2024-03-02T09:17:51;96669.19;;;10.49
79756;BMP280;69239;50.678;12.280;2024-03-02T09:20:16;96665.13;;;10.51
79756;BMP280;69239;50.678;12.280;2024-03-02T09:22:43;96671.38;;;10.59
79756;BMP280;69239;50.678;12.280;2024-03-02T09:25:10;96665.44;;;10.62
79756;BMP280;69239;50.678;12.280;2024-03-02T09:27:39;96676.63;;;10.71
79756;BMP280;69239;50.678;12.280;2024-03-02T09:30:09;96672.25;;;10.75
79756;BMP280;69239;50.678;12.280;2024-03-02T09:32:35;96668.31;;;10.69
79756;BMP280;69239;50.678;12.280;2024-03-02T09:35:01;96673.00;;;10.76
79756;BMP280;69239;50.678;12.280;2024-03-02T09:37:26;96665.59;;;10.78
79756;BMP280;69239;50.678;12.280;2024-03-02T09:39:52;96667.53;;;10.81
79756;BMP280;69239;50.678;12.280;2024-03-02T09:42:17;96678.72;;;10.90
79756;BMP280;69239;50.678;12.280;2024-03-02T09:44:42;96679.25;;;10.95
79756;BMP280;69239;50.678;12.280;2024-03-02T09:47:08;96691.13;;;11.02
79756;BMP280;69239;50.678;12.280;2024-03-02T09:49:34;96674.63;;;11.05
79756;BMP280;69239;50.678;12.280;2024-03-02T09:51:59;96685.16;;;11.17
79756;BMP280;69239;50.678;12.280;2024-03-02T09:54:25;96682.41;;;11.25
79756;BMP280;69239;50.678;12.280;2024-03-02T09:56:50;96688.69;;;11.33
79756;BMP280;69239;50.678;12.280;2024-03-02T09:59:16;96677.44;;;11.36
79756;BMP280;69239;50.678;12.280;2024-03-02T10:02:01;96688.19;;;11.55
79756;BMP280;69239;50.678;12.280;2024-03-02T10:04:28;96675.78;;;11.72
79756;BMP280;69239;50.678;12.280;2024-03-02T10:09:36;96670.28;;;12.20
79756;BMP280;69239;50.678;12.280;2024-03-02T10:12:09;96664.75;;;12.41
79756;BMP280;69239;50.678;12.280;2024-03-02T10:14:35;96668.25;;;12.61
79756;BMP280;69239;50.678;12.280;2024-03-02T10:17:05;96674.97;;;12.94
79756;BMP280;69239;50.678;12.280;2024-03-02T10:19:31;96665.09;;;13.26
79756;BMP280;69239;50.678;12.280;2024-03-02T10:21:59;96664.81;;;13.50
79756;BMP280;69239;50.678;12.280;2024-03-02T10:24:26;96656.63;;;13.78
79756;BMP280;69239;50.678;12.280;2024-03-02T10:26:52;96655.63;;;14.05
79756;BMP280;69239;50.678;12.280;2024-03-02T10:29:18;96658.94;;;14.48
79756;BMP280;69239;50.678;12.280;2024-03-02T10:31:44;96637.94;;;14.62
79756;BMP280;69239;50.678;12.280;2024-03-02T10:34:11;96650.16;;;14.70
79756;BMP280;69239;50.678;12.280;2024-03-02T10:36:37;96646.09;;;14.76
79756;BMP280;69239;50.678;12.280;2024-03-02T10:39:06;96645.69;;;15.01
79756;BMP280;69239;50.678;12.280;2024-03-02T10:41:36;96643.38;;;15.29
79756;BMP280;69239;50.678;12.280;2024-03-02T10:44:04;96636.84;;;15.60
79756;BMP280;69239;50.678;12.280;2024-03-02T10:46:31;96627.09;;;15.71
79756;BMP280;69239;50.678;12.280;2024-03-02T10:48:59;96624.97;;;15.84
79756;BMP280;69239;50.678;12.280;2024-03-02T10:51:28;96636.06;;;15.97
79756;BMP280;69239;50.678;12.280;2024-03-02T10:53:56;96633.38;;;15.93
79756;BMP280;69239;50.678;12.280;2024-03-02T10:56:28;96628.03;;;15.89
79756;BMP280;69239;50.678;12.280;2024-03-02T10:59:22;96635.00;;;16.08
79756;BMP280;69239;50.678;12.280;2024-03-02T11:01:50;96636.53;;;16.06
79756;BMP280;69239;50.678;12.280;2024-03-02T11:04:18;96622.75;;;15.93
79756;BMP280;69239;50.678;12.280;2024-03-02T11:06:48;96628.81;;;15.90
79756;BMP280;69239;50.678;12.280;2024-03-02T11:09:14;96630.34;;;15.91
79756;BMP280;69239;50.678;12.280;2024-03-02T11:11:42;96627.31;;;15.96
79756;BMP280;69239;50.678;12.280;2024-03-02T11:14:13;96624.44;;;16.15
79756;BMP280;69239;50.678;12.280;2024-03-02T11:16:40;96620.66;;;16.13
79756;BMP280;69239;50.678;12.280;2024-03-02T11:19:11;96623.53;;;15.97
79756;BMP280;69239;50.678;12.280;2024-03-02T11:21:37;96618.63;;;15.99
79756;BMP280;69239;50.678;12.280;2024-03-02T11:26:47;96617.25;;;16.19
79756;BMP280;69239;50.678;12.280;2024-03-02T11:32:05;96616.75;;;16.03
79756;BMP280;69239;50.678;12.280;2024-03-02T11:34:32;96614.59;;;16.19
79756;BMP280;69239;50.678;12.280;2024-03-02T11:37:01;96606.41;;;16.46
79756;BMP280;69239;50.678;12.280;2024-03-02T11:39:29;96621.78;;;16.77
79756;BMP280;69239;50.678;12.280;2024-03-02T11:41:56;96611.09;;;16.63
79756;BMP280;69239;50.678;12.280;2024-03-02T11:44:21;96614.94;;;16.76
79756;BMP280;69239;50.678;12.280;2024-03-02T11:46:59;96602.16;;;17.17
79756;BMP280;69239;50.678;12.280;2024-03-02T11:52:04;96600.56;;;18.62
79756;BMP280;69239;50.678;12.280;2024-03-02T11:54:32;96597.63;;;19.70
79756;BMP280;69239;50.678;12.280;2024-03-02T11:57:01;96593.59;;;20.68
79756;BMP280;69239;50.678;12.280;2024-03-02T11:59:28;96593.78;;;21.07
79756;BMP280;69239;50.678;12.280;2024-03-02T12:01:54;96596.81;;;22.02
79756;BMP280;69239;50.678;12.280;2024-03-02T12:04:19;96601.31;;;23.17
79756;BMP280;69239;50.678;12.280;2024-03-02T12:06:45;96597.03;;;23.68
79756;BMP280;69239;50.678;12.280;2024-03-02T12:09:11;96597.38;;;24.66
79756;BMP280;69239;50.678;12.280;2024-03-02T12:11:38;96580.03;;;25.52
79756;BMP280;69239;50.678;12.280;2024-03-02T12:14:03;96588.91;;;26.27
79756;BMP280;69239;50.678;12.280;2024-03-02T12:16:29;96586.59;;;26.47
79756;BMP280;69239;50.678;12.280;2024-03-02T12:18:54;96587.03;;;26.37
79756;BMP280;69239;50.678;12.280;2024-03-02T12:21:20;96592.38;;;26.67
79756;BMP280;69239;50.678;12.280;2024-03-02T12:23:45;96572.84;;;27.12
79756;BMP280;69239;50.678;12.280;2024-03-02T12:26:11;96570.41;;;27.78
79756;BMP280;69239;50.678;12.280;2024-03-02T12:28:36;96575.50;;;27.94
79756;BMP280;69239;50.678;12.280;2024-03-02T12:31:01;96572.91;;;28.75
79756;BMP280;69239;50.678;12.280;2024-03-02T12:33:27;96572.00;;;29.69
79756;BMP280;69239;50.678;12.280;2024-03-02T12:35:54;96568.00;;;30.09
79756;BMP280;69239;50.678;12.280;2024-03-02T12:38:19;96579.72;;;29.71
79756;BMP280;69239;50.678;12.280;2024-03-02T12:40:44;96571.97;;;28.78
79756;BMP280;69239;50.678;12.280;2024-03-02T12:43:10;96564.28;;;28.62
79756;BMP280;69239;50.678;12.280;2024-03-02T12:45:36;96572.16;;;29.22
79756;BMP280;69239;50.678;12.280;2024-03-02T12:48:01;96561.22;;;30.04
79756;BMP280;69239;50.678;12.280;2024-03-02T12:50:27;96556.06;;;30.76
79756;BMP280;69239;50.678;12.280;2024-03-02T12:52:53;96561.56;;;31.28
79756;BMP280;69239;50.678;12.280;2024-03-02T12:55:20;96555.38;;;31.79
79756;BMP280;69239;50.678;12.280;2024-03-02T12:57:46;96548.72;;;32.17
79756;BMP280;69239;50.678;12.280;2024-03-02T13:00:11;96544.63;;;32.38
79756;BMP280;69239;50.678;12.280;2024-03-02T13:02:40;96552.50;;;32.36
79756;BMP280;69239;50.678;12.280;2024-03-02T13:05:07;96550.91;;;32.13
79756;BMP280;69239;50.678;12.280;2024-03-02T13:07:37;96546.25;;;31.87
79756;BMP280;69239;50.678;12.280;2024-03-02T13:10:02;96547.03;;;31.88
79756;BMP280;69239;50.678;12.280;2024-03-02T13:12:29;96543.72;;;31.78
79756;BMP280;69239;50.678;12.280;2024-03-02T13:14:55;96530.91;;;31.84
79756;BMP280;69239;50.678;12.280;2024-03-02T13:17:25;96533.44;;;31.93
79756;BMP280;69239;50.678;12.280;2024-03-02T13:19:57;96539.34;;;32.29
79756;BMP280;69239;50.678;12.280;2024-03-02T13:22:24;96536.56;;;32.18
79756;BMP280;69239;50.678;12.280;2024-03-02T13:24:50;96529.00;;;32.33
79756;BMP280;69239;50.678;12.280;2024-03-02T13:27:15;96529.91;;;32.72
79756;BMP280;69239;50.678;12.280;2024-03-02T13:29:42;96530.66;;;32.84
79756;BMP280;69239;50.678;12.280;2024-03-02T13:32:08;96512.09;;;33.05
79756;BMP280;69239;50.678;12.280;2024-03-02T13:34:35;96521.53;;;33.20
79756;BMP280;69239;50.678;12.280;2024-03-02T13:37:01;96520.56;;;33.40
79756;BMP280;69239;50.678;12.280;2024-03-02T13:39:27;96517.09;;;33.34
79756;BMP280;69239;50.678;12.280;2024-03-02T13:41:52;96517.34;;;33.36
79756;BMP280;69239;50.678;12.280;2024-03-02T13:44:21;96516.09;;;33.26
79756;BMP280;69239;50.678;12.280;2024-03-02T13:46:47;96520.03;;;33.03
79756;BMP280;69239;50.678;12.280;2024-03-02T13:49:13;96510.47;;;32.48
79756;BMP280;69239;50.678;12.280;2024-03-02T13:51:39;96514.75;;;32.12
79756;BMP280;69239;50.678;12.280;2024-03-02T13:54:04;96505.63;;;31.47
79756;BMP280;69239;50.678;12.280;2024-03-02T13:56:30;96512.00;;;31.13
79756;BMP280;69239;50.678;12.280;2024-03-02T13:58:55;96511.94;;;31.33
79756;BMP280;69239;50.678;12.280;2024-03-02T14:01:20;96510.19;;;31.30
79756;BMP280;69239;50.678;12.280;2024-03-02T14:03:46;96511.22;;;31.32
79756;BMP280;69239;50.678;12.280;2024-03-02T14:06:12;96515.13;;;31.06
79756;BMP280;69239;50.678;12.280;2024-03-02T14:08:37;96504.78;;;30.64
79756;BMP280;69239;50.678;12.280;2024-03-02T14:11:03;96506.50;;;30.06
79756;BMP280;69239;50.678;12.280;2024-03-02T14:13:28;96513.69;;;29.06